Time;durP1;ratioP1;P1;durP2;ratioP2;P2;SDS_P1;SDS_P2;PMS_P1;PMS_P2;Temp;Humidity;BMP_temperature;BMP_pressure;BME280_temperature;BME280_humidity;BME280_pressure;Samples;Min_cycle;Max_cycle;Signal;HPM_P1;HPM_P2
2022/05/01 00:00:13;;;;;;;14.43;6.65;;;9.70;99.90;;;;;;4942968;29;20036;-88
2022/05/01 00:02:39;;;;;;;13.95;7.35;;;9.70;99.90;;;;;;4942073;29;20034;-88
2022/05/01 00:05:05;;;;;;;16.45;7.85;;;9.60;99.90;;;;;;4958899;29;20062;-88
2022/05/01 00:07:32;;;;;;;14.93;7.03;;;9.60;99.90;;;;;;4925866;29;20032;-88
2022/05/01 00:09:58;;;;;;;13.73;6.55;;;9.80;99.90;;;;;;4922220;29;20028;-88
2022/05/01 00:12:24;;;;;;;14.07;7.32;;;9.50;99.90;;;;;;4939363;29;20690;-88
2022/05/01 00:14:51;;;;;;;12.88;7.38;;;9.70;99.90;;;;;;4939483;28;20038;-89
2022/05/01 00:17:17;;;;;;;15.25;7.10;;;9.70;99.90;;;;;;4939316;29;20082;-88
2022/05/01 00:19:42;;;;;;;14.75;7.10;;;9.70;99.90;;;;;;4922137;29;20032;-88
2022/05/01 00:22:10;;;;;;;12.75;6.53;;;9.70;99.90;;;;;;4921914;29;20114;-88
2022/05/01 00:24:39;;;;;;;14.65;6.78;;;9.80;99.90;;;;;;4923315;29;20546;-88
2022/05/01 00:27:05;;;;;;;14.55;7.22;;;9.80;99.90;;;;;;4951817;28;20611;-88
2022/05/01 00:29:31;;;;;;;14.80;6.95;;;9.80;99.90;;;;;;4930937;29;20042;-89
2022/05/01 00:31:57;;;;;;;14.73;6.65;;;9.80;99.90;;;;;;4937259;29;20035;-88
2022/05/01 00:37:06;;;;;;;12.95;6.70;;;9.90;99.90;;;;;;4954716;28;20038;-88
2022/05/01 00:39:32;;;;;;;15.27;7.15;;;9.90;99.90;;;;;;4958291;29;20046;-88
2022/05/01 00:41:58;;;;;;;14.45;6.97;;;9.80;99.90;;;;;;4958727;29;20031;-88
2022/05/01 00:44:24;;;;;;;13.88;6.45;;;9.90;99.90;;;;;;4941869;29;20027;-89
2022/05/01 00:46:53;;;;;;;17.08;7.43;;;9.90;99.90;;;;;;4957859;29;20147;-88
2022/05/01 00:49:27;;;;;;;14.57;7.50;;;9.90;99.90;;;;;;4941103;29;20094;-87
2022/05/01 00:52:04;;;;;;;15.43;7.07;;;9.90;99.90;;;;;;4941427;28;20027;-88
2022/05/01 00:54:31;;;;;;;10.80;6.40;;;9.90;99.90;;;;;;4923312;29;20023;-88
2022/05/01 00:57:05;;;;;;;14.73;7.13;;;9.90;99.90;;;;;;4921980;29;20091;-88
2022/05/01 00:59:31;;;;;;;15.98;7.10;;;9.80;99.90;;;;;;4923010;29;20040;-88
2022/05/01 01:01:58;;;;;;;15.80;7.28;;;9.80;99.90;;;;;;4923322;28;20079;-88
2022/05/01 01:04:24;;;;;;;17.92;7.43;;;9.70;99.90;;;;;;4955374;28;20031;-88
2022/05/01 01:06:50;;;;;;;15.32;7.20;;;9.80;99.90;;;;;;4941312;28;20051;-88
2022/05/01 01:09:16;;;;;;;16.83;6.93;;;9.70;99.90;;;;;;4945263;29;20024;-88
2022/05/01 01:11:43;;;;;;;15.02;6.90;;;9.80;99.90;;;;;;4927364;29;20082;-88
2022/05/01 01:14:10;;;;;;;14.45;7.13;;;9.80;99.90;;;;;;4953609;28;20031;-87
2022/05/01 01:16:38;;;;;;;16.60;6.72;;;9.80;99.90;;;;;;4944052;29;20034;-87
2022/05/01 01:19:06;;;;;;;13.50;6.70;;;9.80;99.90;;;;;;4944555;29;20038;-88
2022/05/01 01:21:32;;;;;;;15.60;7.05;;;9.80;99.90;;;;;;4943728;29;20042;-87
2022/05/01 01:23:59;;;;;;;15.70;7.68;;;9.80;99.90;;;;;;4944335;29;20042;-88
2022/05/01 01:26:29;;;;;;;16.88;7.15;;;9.90;99.90;;;;;;4943309;29;20054;-88
2022/05/01 01:28:59;;;;;;;17.17;7.93;;;9.70;99.90;;;;;;4941867;29;20024;-87
2022/05/01 01:31:42;;;;;;;16.85;7.63;;;9.80;99.90;;;;;;4926049;29;20027;-88
2022/05/01 01:34:11;;;;;;;19.10;8.02;;;9.60;99.90;;;;;;4925695;29;20066;-89
2022/05/01 01:36:38;;;;;;;19.10;7.35;;;9.80;99.90;;;;;;4942825;29;20110;-88
2022/05/01 01:39:05;;;;;;;17.83;8.05;;;9.70;99.90;;;;;;4943915;29;20027;-88
2022/05/01 01:41:32;;;;;;;18.08;8.07;;;9.70;99.90;;;;;;4943565;29;20041;-88
2022/05/01 01:43:59;;;;;;;15.50;7.25;;;9.60;99.90;;;;;;4942629;29;20508;-88
2022/05/01 01:46:25;;;;;;;16.17;8.18;;;9.70;99.90;;;;;;4944792;29;20023;-89
2022/05/01 01:48:51;;;;;;;15.07;7.03;;;9.70;99.90;;;;;;4942471;29;20405;-89
2022/05/01 01:51:18;;;;;;;16.83;7.97;;;9.70;99.90;;;;;;4955922;28;20050;-88
2022/05/01 01:53:44;;;;;;;16.00;7.63;;;9.70;99.90;;;;;;4956142;29;20024;-88
2022/05/01 01:56:10;;;;;;;13.57;6.95;;;9.70;99.90;;;;;;4922905;29;20042;-88
2022/05/01 01:58:38;;;;;;;17.40;7.70;;;9.80;99.90;;;;;;4941298;29;20024;-88
2022/05/01 02:01:06;;;;;;;14.95;7.38;;;9.70;99.90;;;;;;4956912;28;20027;-88
2022/05/01 02:03:33;;;;;;;19.02;6.88;;;9.70;99.90;;;;;;4941126;29;20034;-89
2022/05/01 02:06:04;;;;;;;18.83;8.30;;;9.70;99.90;;;;;;4957989;29;20023;-89
2022/05/01 02:08:31;;;;;;;14.20;7.45;;;9.70;99.90;;;;;;4940415;29;20023;-88
2022/05/01 02:10:56;;;;;;;17.20;8.10;;;9.70;99.90;;;;;;4956163;29;20482;-88
2022/05/01 02:13:22;;;;;;;16.30;7.85;;;9.70;99.90;;;;;;4941776;28;20088;-88
2022/05/01 02:15:48;;;;;;;16.42;7.78;;;9.60;99.90;;;;;;4936910;29;20414;-89
2022/05/01 02:18:13;;;;;;;18.45;8.00;;;9.60;99.90;;;;;;4921204;29;20028;-88
2022/05/01 02:23:24;;;;;;;15.45;7.60;;;9.50;99.90;;;;;;4955222;28;20066;-88
2022/05/01 02:25:50;;;;;;;18.77;8.20;;;9.50;99.90;;;;;;4940752;29;20086;-88
2022/05/01 02:28:16;;;;;;;19.17;8.32;;;9.50;99.90;;;;;;4940242;29;20502;-88
2022/05/01 02:30:42;;;;;;;16.50;7.90;;;9.50;99.90;;;;;;4957477;28;20019;-88
2022/05/01 02:33:11;;;;;;;17.38;8.32;;;9.70;99.90;;;;;;4958013;29;20031;-87
2022/05/01 02:35:37;;;;;;;18.60;8.82;;;9.60;99.90;;;;;;4954773;29;20030;-89
2022/05/01 02:38:04;;;;;;;16.63;7.05;;;9.70;99.90;;;;;;4939949;29;20027;-89
2022/05/01 02:40:30;;;;;;;16.50;7.70;;;9.50;99.90;;;;;;4953517;28;20046;-88
2022/05/01 02:43:00;;;;;;;15.68;7.57;;;9.50;99.90;;;;;;4938583;29;20633;-88
2022/05/01 02:45:29;;;;;;;19.10;8.32;;;9.50;99.90;;;;;;4922792;29;20039;-88
2022/05/01 02:47:55;;;;;;;17.92;8.55;;;9.50;99.90;;;;;;4928270;29;20035;-88
2022/05/01 02:50:25;;;;;;;17.38;8.13;;;9.40;99.90;;;;;;4957566;29;20023;-88
2022/05/01 02:52:51;;;;;;;14.82;7.03;;;9.40;99.90;;;;;;4957475;29;20030;-88
2022/05/01 02:55:17;;;;;;;18.05;8.05;;;9.30;99.90;;;;;;4940086;29;20468;-88
2022/05/01 02:57:43;;;;;;;15.65;8.05;;;9.30;99.90;;;;;;4940277;29;20031;-88
2022/05/01 03:00:18;;;;;;;16.02;8.45;;;9.20;99.90;;;;;;4939841;29;20027;-88
2022/05/01 03:02:48;;;;;;;19.20;7.22;;;9.20;99.90;;;;;;4957743;29;20118;-88
2022/05/01 03:05:14;;;;;;;16.60;8.05;;;9.20;99.90;;;;;;4938409;29;20087;-88
2022/05/01 03:07:40;;;;;;;23.05;7.60;;;9.10;99.90;;;;;;4937882;29;20020;-88
2022/05/01 03:10:07;;;;;;;14.40;7.55;;;9.20;99.90;;;;;;4938471;29;20577;-87
2022/05/01 03:12:33;;;;;;;16.40;6.85;;;9.30;99.90;;;;;;4940012;28;20024;-88
2022/05/01 03:14:59;;;;;;;15.70;7.70;;;9.20;99.90;;;;;;4939283;29;20036;-89
2022/05/01 03:17:25;;;;;;;16.85;7.35;;;9.20;99.90;;;;;;4920743;29;20062;-88
2022/05/01 03:22:34;;;;;;;16.80;7.68;;;9.30;99.90;;;;;;4957978;29;20061;-88
2022/05/01 03:25:00;;;;;;;19.13;8.52;;;9.30;99.90;;;;;;4948484;29;20486;-88
2022/05/01 03:27:26;;;;;;;16.70;6.90;;;9.20;99.90;;;;;;4956493;29;20530;-88
2022/05/01 03:32:36;;;;;;;16.95;8.15;;;9.30;99.90;;;;;;4956971;29;20073;-88
2022/05/01 03:35:02;;;;;;;21.98;7.57;;;9.10;99.90;;;;;;4940338;29;20031;-88
2022/05/01 03:37:29;;;;;;;14.95;7.60;;;9.10;99.90;;;;;;4940583;28;20123;-88
2022/05/01 03:39:55;;;;;;;14.73;7.63;;;9.10;99.90;;;;;;4938959;29;20040;-88
2022/05/01 03:42:20;;;;;;;15.95;7.38;;;9.10;99.90;;;;;;4938874;29;20509;-88
2022/05/01 03:44:46;;;;;;;17.75;7.05;;;9.20;99.90;;;;;;4942394;29;20035;-89
2022/05/01 03:47:14;;;;;;;16.52;6.53;;;9.00;99.90;;;;;;4927472;29;20055;-88
2022/05/01 03:49:40;;;;;;;15.85;7.80;;;9.10;99.90;;;;;;4958762;29;20114;-88
2022/05/01 03:52:06;;;;;;;18.50;8.48;;;9.10;99.90;;;;;;4962285;28;20026;-88
2022/05/01 03:54:32;;;;;;;16.60;8.05;;;9.10;99.90;;;;;;4945001;29;20028;-88
2022/05/01 03:56:57;;;;;;;17.98;8.18;;;9.10;99.90;;;;;;4944869;29;20031;-88
2022/05/01 03:59:24;;;;;;;18.17;8.15;;;9.10;99.90;;;;;;4960908;28;20490;-88
2022/05/01 04:01:49;;;;;;;21.60;8.27;;;9.10;99.90;;;;;;4938311;29;20086;-88
2022/05/01 04:04:19;;;;;;;16.60;8.27;;;9.10;99.90;;;;;;4921553;29;20031;-89
2022/05/01 04:06:48;;;;;;;17.40;7.75;;;9.10;99.90;;;;;;4944294;29;20015;-88
2022/05/01 04:09:13;;;;;;;22.17;9.05;;;8.90;99.90;;;;;;4956745;28;20019;-89
2022/05/01 04:11:42;;;;;;;16.65;8.25;;;9.00;99.90;;;;;;4937046;28;20035;-88
2022/05/01 04:14:07;;;;;;;18.10;7.47;;;9.00;99.90;;;;;;4938264;28;20120;-88
2022/05/01 04:16:33;;;;;;;18.23;8.45;;;8.90;99.90;;;;;;4935081;29;20574;-89
2022/05/01 04:19:02;;;;;;;21.63;8.18;;;8.90;99.90;;;;;;4935263;29;20167;-89
2022/05/01 04:21:30;;;;;;;16.27;7.50;;;9.10;99.90;;;;;;4918730;29;20032;-88
2022/05/01 04:23:56;;;;;;;19.27;8.50;;;9.00;99.90;;;;;;4919553;29;20031;-88
2022/05/01 04:26:21;;;;;;;22.02;8.57;;;9.00;99.90;;;;;;4930004;29;20588;-88
2022/05/01 04:31:33;;;;;;;24.13;9.27;;;9.00;99.90;;;;;;4938409;28;20128;-88
2022/05/01 04:33:59;;;;;;;20.70;9.00;;;9.00;99.90;;;;;;4939565;29;20083;-88
2022/05/01 04:36:25;;;;;;;20.90;8.93;;;9.00;99.90;;;;;;4936398;29;20063;-88
2022/05/01 04:38:51;;;;;;;22.40;9.18;;;9.00;99.90;;;;;;4921503;28;20028;-89
2022/05/01 04:41:18;;;;;;;19.85;8.07;;;9.00;99.90;;;;;;4939191;29;20025;-88
2022/05/01 04:43:44;;;;;;;19.85;8.68;;;9.00;99.90;;;;;;4941276;29;20030;-88
2022/05/01 04:46:10;;;;;;;20.38;8.10;;;9.00;99.90;;;;;;4959585;29;20035;-88
2022/05/01 04:48:38;;;;;;;20.75;8.80;;;9.00;99.90;;;;;;4958255;28;20035;-88
2022/05/01 04:51:05;;;;;;;18.60;8.38;;;9.10;99.90;;;;;;4958743;28;20035;-89
2022/05/01 04:53:33;;;;;;;19.80;9.05;;;9.00;99.90;;;;;;4956438;28;20101;-89
2022/05/01 04:57:04;;;;;;;17.58;8.55;;;9.10;99.90;;;;;;4937686;29;20027;-89
2022/05/01 04:58:47;;;;;;;18.77;8.07;;;9.10;99.90;;;;;;4959081;28;20043;-89
2022/05/01 05:01:16;;;;;;;18.48;8.60;;;9.10;99.90;;;;;;4937053;29;20022;-89
2022/05/01 05:03:45;;;;;;;21.52;8.95;;;9.10;99.90;;;;;;4942464;29;20031;-89
2022/05/01 05:06:11;;;;;;;17.10;7.97;;;9.10;99.90;;;;;;4940454;29;20501;-89
2022/05/01 05:11:21;;;;;;;18.10;8.43;;;9.20;99.90;;;;;;4956253;28;20127;-89
2022/05/01 05:13:46;;;;;;;16.77;7.90;;;9.20;99.90;;;;;;4959310;29;20482;-89
2022/05/01 05:16:15;;;;;;;20.95;8.68;;;9.20;99.90;;;;;;4939306;29;20498;-89
2022/05/01 05:18:40;;;;;;;18.45;8.30;;;9.20;99.90;;;;;;4937521;29;20035;-88
2022/05/01 05:21:11;;;;;;;18.45;7.28;;;9.20;99.90;;;;;;4941563;29;20454;-88
2022/05/01 05:23:37;;;;;;;18.33;7.97;;;9.20;99.90;;;;;;4957649;28;20050;-89
2022/05/01 05:26:06;;;;;;;22.33;8.52;;;9.10;99.90;;;;;;4953932;28;20034;-89
2022/05/01 05:28:34;;;;;;;17.17;7.43;;;9.20;99.90;;;;;;4954862;28;20023;-88
2022/05/01 05:31:00;;;;;;;18.17;7.90;;;9.20;99.90;;;;;;4958636;28;20028;-89
2022/05/01 05:33:28;;;;;;;16.70;8.10;;;9.20;99.90;;;;;;4958325;29;20027;-89
2022/05/01 05:35:56;;;;;;;21.35;8.10;;;9.20;99.90;;;;;;4936818;29;20110;-89
2022/05/01 05:38:22;;;;;;;17.77;8.52;;;9.20;99.90;;;;;;4937505;29;20028;-89
2022/05/01 05:40:47;;;;;;;16.23;7.63;;;9.30;99.90;;;;;;4941138;29;20037;-88
2022/05/01 05:43:13;;;;;;;20.08;9.27;;;9.30;99.90;;;;;;4937629;28;20028;-88
2022/05/01 05:45:39;;;;;;;16.75;7.90;;;9.20;99.90;;;;;;4943702;29;20035;-88
2022/05/01 05:48:06;;;;;;;15.98;8.15;;;9.30;99.90;;;;;;4955921;23;20027;-84
2022/05/01 05:50:31;;;;;;;15.32;7.30;;;9.30;99.90;;;;;;4913021;29;20024;-85
2022/05/01 05:52:57;;;;;;;16.92;7.68;;;9.30;99.90;;;;;;4916313;29;20016;-86
2022/05/01 05:55:22;;;;;;;17.20;7.60;;;9.30;99.90;;;;;;4901624;29;20020;-85
2022/05/01 05:57:48;;;;;;;20.27;8.75;;;9.40;99.90;;;;;;4899980;29;20020;-85
2022/05/01 06:00:14;;;;;;;17.83;7.72;;;9.30;99.90;;;;;;4917942;29;20024;-85
2022/05/01 06:02:40;;;;;;;20.65;8.70;;;9.30;99.90;;;;;;4902952;29;20447;-85
2022/05/01 06:05:06;;;;;;;17.20;8.20;;;9.30;99.90;;;;;;4922265;29;20040;-85
2022/05/01 06:07:32;;;;;;;18.73;7.88;;;9.30;99.90;;;;;;4920311;29;20615;-86
2022/05/01 06:09:58;;;;;;;18.13;7.95;;;9.30;99.90;;;;;;4916714;29;20066;-85
2022/05/01 06:12:24;;;;;;;17.35;8.32;;;9.40;99.90;;;;;;4895442;29;20073;-85
2022/05/01 06:14:49;;;;;;;16.38;7.57;;;9.40;99.90;;;;;;4901339;29;20024;-86
2022/05/01 06:17:15;;;;;;;20.55;7.90;;;9.40;99.90;;;;;;4916956;29;20151;-85
2022/05/01 06:19:41;;;;;;;15.48;7.50;;;9.40;99.90;;;;;;4899589;29;20020;-85
2022/05/01 06:22:06;;;;;;;15.93;7.72;;;9.50;99.90;;;;;;4903629;29;20503;-85
2022/05/01 06:24:32;;;;;;;18.85;8.52;;;9.40;99.90;;;;;;4915349;29;20025;-85
2022/05/01 06:26:58;;;;;;;18.48;7.82;;;9.40;99.90;;;;;;4899465;29;20119;-85
2022/05/01 06:29:24;;;;;;;15.13;7.50;;;9.50;99.90;;;;;;4897872;29;20039;-85
2022/05/01 06:31:51;;;;;;;14.95;7.53;;;9.60;99.90;;;;;;4902745;29;20028;-85
2022/05/01 06:34:16;;;;;;;17.15;7.93;;;9.60;99.90;;;;;;4935460;29;20067;-85
2022/05/01 06:36:42;;;;;;;17.90;7.95;;;9.60;99.90;;;;;;4922020;29;20765;-86
2022/05/01 06:39:11;;;;;;;17.80;7.25;;;9.70;99.90;;;;;;4901117;29;20504;-85
2022/05/01 06:41:38;;;;;;;14.35;7.57;;;9.70;99.90;;;;;;4919287;29;20091;-85
2022/05/01 06:44:03;;;;;;;16.15;7.65;;;9.90;99.90;;;;;;4898370;29;20586;-85
2022/05/01 06:46:30;;;;;;;16.13;7.35;;;9.90;99.90;;;;;;4914620;29;20084;-85
2022/05/01 06:48:55;;;;;;;19.40;7.65;;;9.90;99.90;;;;;;4900910;29;20557;-85
2022/05/01 06:51:21;;;;;;;15.68;7.25;;;10.00;99.90;;;;;;4918121;29;20167;-85
2022/05/01 06:53:46;;;;;;;15.60;7.05;;;10.20;99.90;;;;;;4899518;29;20028;-85
2022/05/01 06:56:12;;;;;;;13.15;6.50;;;10.00;99.90;;;;;;4915512;29;20051;-85
2022/05/01 06:58:38;;;;;;;16.63;7.32;;;10.10;99.90;;;;;;4918496;29;20080;-85
2022/05/01 07:01:03;;;;;;;18.85;7.95;;;10.10;99.90;;;;;;4898566;29;20032;-86
2022/05/01 07:03:29;;;;;;;13.73;7.38;;;10.30;99.90;;;;;;4916719;29;20114;-86
2022/05/01 07:05:55;;;;;;;13.02;7.10;;;10.30;99.90;;;;;;4927104;29;20399;-86
2022/05/01 07:08:20;;;;;;;17.20;7.95;;;10.30;99.90;;;;;;4916418;29;20035;-86
2022/05/01 07:10:46;;;;;;;14.48;6.82;;;10.30;99.90;;;;;;4898977;29;20051;-86
2022/05/01 07:13:12;;;;;;;16.65;7.50;;;10.40;99.90;;;;;;4911530;29;20020;-87
2022/05/01 07:15:38;;;;;;;15.90;7.18;;;10.40;99.90;;;;;;4915472;29;20428;-87
2022/05/01 07:18:04;;;;;;;17.50;7.57;;;10.40;99.90;;;;;;4914371;29;20040;-86
2022/05/01 07:20:33;;;;;;;16.27;6.72;;;10.40;99.90;;;;;;4896344;29;20052;-85
2022/05/01 07:22:58;;;;;;;13.27;6.82;;;10.40;99.90;;;;;;4914644;29;20032;-85
2022/05/01 07:25:24;;;;;;;14.40;6.95;;;10.40;99.90;;;;;;4913998;29;20038;-85
2022/05/01 07:27:49;;;;;;;13.70;6.68;;;10.40;99.90;;;;;;4898559;29;20032;-85
2022/05/01 07:30:15;;;;;;;14.23;7.38;;;10.40;99.90;;;;;;4914581;29;20487;-86
2022/05/01 07:32:41;;;;;;;18.20;8.18;;;10.60;99.90;;;;;;4915138;29;20483;-85
2022/05/01 07:35:07;;;;;;;16.70;7.88;;;10.40;99.90;;;;;;4914339;29;20494;-86
2022/05/01 07:37:33;;;;;;;14.63;6.65;;;10.50;99.90;;;;;;4912224;29;20040;-86
2022/05/01 07:39:59;;;;;;;15.60;6.97;;;10.60;99.90;;;;;;4914697;29;20039;-85
2022/05/01 07:42:25;;;;;;;16.60;7.70;;;10.80;99.90;;;;;;4898532;29;20123;-86
2022/05/01 07:44:51;;;;;;;13.93;6.75;;;10.80;99.90;;;;;;4913240;29;20119;-85
2022/05/01 07:47:17;;;;;;;17.52;7.47;;;10.70;99.90;;;;;;4897131;29;20032;-85
2022/05/01 07:49:43;;;;;;;14.48;6.72;;;10.70;99.90;;;;;;4914614;29;20044;-86
2022/05/01 07:52:13;;;;;;;14.50;7.13;;;10.70;99.90;;;;;;4898301;29;20115;-86
2022/05/01 07:54:38;;;;;;;13.52;6.45;;;10.70;99.90;;;;;;4898771;29;20028;-85
2022/05/01 07:57:04;;;;;;;15.60;7.22;;;10.70;99.90;;;;;;4914273;29;20040;-85
2022/05/01 07:59:30;;;;;;;14.93;7.43;;;10.90;99.90;;;;;;4914899;29;20029;-86
2022/05/01 08:01:56;;;;;;;14.57;6.97;;;11.00;99.90;;;;;;4903894;29;20607;-84
2022/05/01 08:04:28;;;;;;;14.15;7.20;;;11.10;99.90;;;;;;4917865;29;20036;-84
2022/05/01 08:06:57;;;;;;;15.23;6.85;;;11.20;99.90;;;;;;4895648;29;20032;-84
2022/05/01 08:09:23;;;;;;;12.45;5.82;;;11.10;99.90;;;;;;4895984;29;20036;-84
2022/05/01 08:11:49;;;;;;;10.95;6.13;;;11.20;99.90;;;;;;4893961;29;20399;-84
2022/05/01 08:14:14;;;;;;;14.98;7.13;;;11.40;99.90;;;;;;4899080;29;20029;-83
2022/05/01 08:16:41;;;;;;;13.27;6.00;;;11.50;99.90;;;;;;4897475;29;20034;-83
2022/05/01 08:21:52;;;;;;;12.65;5.55;;;11.70;99.90;;;;;;4918215;29;20111;-83
2022/05/01 08:24:18;;;;;;;12.35;6.43;;;11.70;99.90;;;;;;4915671;29;20020;-84
2022/05/01 08:26:47;;;;;;;9.90;5.57;;;11.70;99.90;;;;;;4918783;29;20032;-85
2022/05/01 08:29:16;;;;;;;10.35;5.43;;;11.70;99.90;;;;;;4902643;29;20509;-83
2022/05/01 08:31:43;;;;;;;11.18;4.80;;;11.90;99.90;;;;;;4919065;29;20513;-84
2022/05/01 08:34:09;;;;;;;10.00;5.43;;;11.80;99.90;;;;;;4901821;29;20119;-84
2022/05/01 08:36:36;;;;;;;10.85;5.72;;;11.80;99.90;;;;;;4918510;29;20511;-85
2022/05/01 08:39:02;;;;;;;10.93;5.28;;;11.80;99.90;;;;;;4918198;29;20037;-85
2022/05/01 08:41:31;;;;;;;12.30;5.40;;;11.70;99.90;;;;;;4901490;29;20024;-85
2022/05/01 08:43:58;;;;;;;12.88;5.32;;;11.70;99.90;;;;;;4917073;29;20171;-84
2022/05/01 08:46:54;;;;;;;12.82;6.07;;;11.50;99.90;;;;;;4900673;29;20055;-84
2022/05/01 08:49:21;;;;;;;11.27;4.53;;;11.20;99.90;;;;;;4883692;29;20096;-85
2022/05/01 08:51:48;;;;;;;11.80;5.32;;;11.10;99.90;;;;;;4902180;29;20029;-85
2022/05/01 08:54:16;;;;;;;12.48;5.85;;;11.10;99.90;;;;;;4902547;29;20131;-85
2022/05/01 08:56:43;;;;;;;12.00;6.28;;;11.20;99.90;;;;;;4920241;29;20031;-85
2022/05/01 08:59:19;;;;;;;14.75;6.43;;;11.10;99.90;;;;;;4918188;29;20249;-85
2022/05/01 09:01:45;;;;;;;13.65;5.97;;;11.00;99.90;;;;;;4918682;29;20051;-85
2022/05/01 09:04:12;;;;;;;11.63;6.35;;;11.20;99.90;;;;;;4903397;29;20372;-85
2022/05/01 09:06:39;;;;;;;11.70;6.30;;;11.20;99.90;;;;;;4903014;29;20028;-85
2022/05/01 09:09:06;;;;;;;12.05;6.10;;;11.10;99.90;;;;;;4919992;29;20103;-85
2022/05/01 09:14:25;;;;;;;13.25;6.28;;;11.10;99.90;;;;;;4916903;29;20132;-85
2022/05/01 09:17:13;;;;;;;12.40;5.85;;;11.00;99.90;;;;;;4911735;29;20448;-85
2022/05/01 09:19:39;;;;;;;13.38;6.20;;;11.20;99.90;;;;;;4919729;29;20131;-85
2022/05/01 09:22:04;;;;;;;13.70;5.70;;;11.20;99.90;;;;;;4902395;29;20026;-85
2022/05/01 09:24:31;;;;;;;12.32;5.25;;;11.40;99.90;;;;;;4918027;29;20040;-86
2022/05/01 09:26:58;;;;;;;13.57;6.05;;;11.60;99.90;;;;;;4917043;29;20040;-85
2022/05/01 09:29:34;;;;;;;14.80;6.65;;;11.80;99.90;;;;;;4917323;29;20056;-86
2022/05/01 09:32:04;;;;;;;11.70;6.03;;;12.20;99.90;;;;;;4918947;29;20091;-85
2022/05/01 09:34:32;;;;;;;13.35;5.43;;;12.50;99.90;;;;;;4902199;29;20078;-85
2022/05/01 09:37:00;;;;;;;11.27;5.50;;;12.60;99.90;;;;;;4919368;29;20062;-86
2022/05/01 09:39:27;;;;;;;10.98;5.78;;;12.80;99.90;;;;;;4919475;29;20491;-85
2022/05/01 09:41:55;;;;;;;9.88;5.15;;;13.30;99.90;;;;;;4902033;29;20038;-85
2022/05/01 09:44:22;;;;;;;11.93;5.53;;;13.70;99.90;;;;;;4899367;29;20064;-86
2022/05/01 09:46:50;;;;;;;11.88;5.55;;;13.90;99.90;;;;;;4901332;29;20031;-86
2022/05/01 09:49:19;;;;;;;10.77;5.82;;;14.00;99.90;;;;;;4903082;29;20036;-86
2022/05/01 09:51:56;;;;;;;11.88;5.75;;;14.40;99.90;;;;;;4901856;29;20057;-86
2022/05/01 09:54:24;;;;;;;9.80;4.65;;;14.40;99.90;;;;;;4901746;29;20020;-86
2022/05/01 09:56:57;;;;;;;10.32;4.55;;;14.30;99.90;;;;;;4900255;29;20031;-86
2022/05/01 09:59:23;;;;;;;8.32;4.15;;;14.50;99.90;;;;;;4900182;29;20043;-86
2022/05/01 10:02:03;;;;;;;14.55;5.13;;;15.00;99.90;;;;;;4922965;29;20406;-86
2022/05/01 10:04:34;;;;;;;9.38;4.25;;;15.40;99.90;;;;;;4920139;29;20510;-86
2022/05/01 10:07:01;;;;;;;10.07;4.45;;;15.60;99.90;;;;;;4921410;29;20033;-86
2022/05/01 10:09:29;;;;;;;8.57;4.05;;;15.30;99.90;;;;;;4920017;29;20116;-86
2022/05/01 10:11:57;;;;;;;8.52;4.13;;;15.00;99.90;;;;;;4912908;29;20052;-86
2022/05/01 10:14:23;;;;;;;9.25;4.97;;;14.90;99.90;;;;;;4917251;29;20156;-86
2022/05/01 10:16:50;;;;;;;9.77;4.47;;;15.00;99.90;;;;;;4924797;29;20032;-85
2022/05/01 10:19:17;;;;;;;8.55;4.38;;;14.80;99.90;;;;;;4912342;29;20024;-85
2022/05/01 10:21:47;;;;;;;8.60;3.97;;;14.40;99.90;;;;;;4907928;29;20020;-86
2022/05/01 10:24:14;;;;;;;10.73;4.75;;;14.20;99.90;;;;;;4905224;29;20028;-86
2022/05/01 10:27:18;;;;;;;9.23;4.35;;;14.20;99.90;;;;;;4900478;29;20032;-85
2022/05/01 10:32:50;;;;;;;;;;;14.50;99.90;;;;;;4911180;29;20318;-86
2022/05/01 10:35:46;;;;;;;8.52;3.92;;;14.20;99.90;;;;;;4915944;29;19915;-85
2022/05/01 10:38:26;;;;;;;8.50;4.22;;;13.90;99.90;;;;;;4901159;29;20016;-84
2022/05/01 10:40:59;;;;;;;7.80;4.03;;;13.80;99.90;;;;;;4915733;29;20028;-85
2022/05/01 10:43:31;;;;;;;8.57;3.53;;;13.90;99.90;;;;;;4921162;29;20071;-86
2022/05/01 10:46:01;;;;;;;9.55;3.95;;;13.50;99.90;;;;;;4906043;29;20035;-85
2022/05/01 10:48:35;;;;;;;7.35;3.85;;;13.30;99.90;;;;;;4900996;29;20036;-87
2022/05/01 10:51:36;;;;;;;8.05;3.75;;;13.40;99.90;;;;;;4920920;29;20036;-87
2022/05/01 10:54:14;;;;;;;8.60;3.55;;;13.60;99.90;;;;;;4922317;29;20031;-86
2022/05/01 10:56:45;;;;;;;8.05;3.95;;;13.90;99.90;;;;;;4920312;29;20168;-86
2022/05/01 10:59:29;;;;;;;7.90;3.92;;;14.30;99.90;;;;;;4916957;29;20060;-86
2022/05/01 11:01:59;;;;;;;6.95;2.85;;;14.20;99.90;;;;;;4917940;29;20021;-86
2022/05/01 11:04:28;;;;;;;6.80;3.42;;;14.10;99.90;;;;;;4902515;29;20121;-86
2022/05/01 11:06:55;;;;;;;6.35;3.38;;;14.20;99.90;;;;;;4918619;29;20016;-86
2022/05/01 11:09:25;;;;;;;8.13;3.85;;;14.20;99.90;;;;;;4898109;29;20187;-86
2022/05/01 11:11:56;;;;;;;6.13;3.47;;;14.40;99.90;;;;;;4895954;29;20570;-86
2022/05/01 11:14:38;;;;;;;9.87;4.03;;;14.60;99.90;;;;;;4913613;29;20498;-86
2022/05/01 11:17:05;;;;;;;7.85;3.55;;;14.90;99.90;;;;;;4900439;29;20799;-86
2022/05/01 11:19:50;;;;;;;6.93;3.35;;;14.80;99.90;;;;;;4915355;29;20028;-86
2022/05/01 11:22:24;;;;;;;8.68;3.78;;;15.00;99.90;;;;;;4898548;29;20058;-86
2022/05/01 11:24:50;;;;;;;6.97;3.40;;;15.20;99.90;;;;;;4916559;29;20028;-86
2022/05/01 11:27:17;;;;;;;6.88;3.63;;;15.50;99.90;;;;;;4924030;29;20387;-86
2022/05/01 11:30:08;;;;;;;6.32;2.95;;;15.60;99.90;;;;;;4913302;29;20032;-86
2022/05/01 11:32:43;;;;;;;7.63;3.75;;;15.80;99.90;;;;;;4912769;29;20055;-86
2022/05/01 11:35:11;;;;;;;6.10;3.33;;;15.50;99.90;;;;;;4919659;29;20035;-86
2022/05/01 11:37:59;;;;;;;8.02;3.63;;;15.40;99.90;;;;;;4901619;29;20145;-86
2022/05/01 11:40:27;;;;;;;8.25;3.30;;;15.30;99.90;;;;;;4918148;29;20087;-86
2022/05/01 11:43:12;;;;;;;8.48;4.50;;;15.50;99.90;;;;;;4900223;29;20024;-86
2022/05/01 11:45:37;;;;;;;8.82;3.85;;;15.50;99.90;;;;;;4936087;29;20032;-86
2022/05/01 11:48:11;;;;;;;8.18;4.13;;;15.40;99.90;;;;;;4933023;29;20031;-85
2022/05/01 11:50:50;;;;;;;7.43;3.83;;;15.40;99.90;;;;;;4950227;23;20063;-90
2022/05/01 11:53:17;;;;;;;6.38;3.25;;;15.30;99.90;;;;;;4940276;29;20509;-90
2022/05/01 12:04:36;;;;;;;6.60;3.22;;;15.60;99.90;;;;;;4946122;29;20038;-90
2022/05/01 12:07:23;;;;;;;5.82;2.70;;;15.50;99.90;;;;;;4922101;29;20785;-89
2022/05/01 12:09:51;;;;;;;6.97;3.17;;;15.60;99.90;;;;;;4939742;29;20042;-90
2022/05/01 12:12:19;;;;;;;6.80;2.97;;;15.90;99.90;;;;;;4923352;29;20039;-89
2022/05/01 12:14:48;;;;;;;7.85;3.53;;;16.00;99.90;;;;;;4936106;29;20057;-89
2022/05/01 12:17:18;;;;;;;7.30;3.50;;;16.10;99.90;;;;;;4944660;29;20074;-89
2022/05/01 12:19:48;;;;;;;6.72;3.30;;;15.90;99.90;;;;;;4932898;29;20031;-89
2022/05/01 12:22:23;;;;;;;7.13;3.30;;;15.80;99.90;;;;;;4936446;29;20024;-89
2022/05/01 12:24:54;;;;;;;6.70;3.50;;;15.90;99.90;;;;;;4934857;29;20430;-89
2022/05/01 12:27:26;;;;;;;6.77;3.57;;;15.90;99.90;;;;;;4924012;29;20477;-89
2022/05/01 12:29:57;;;;;;;7.43;3.33;;;15.40;99.90;;;;;;4923125;29;20048;-89
2022/05/01 12:32:24;;;;;;;9.23;3.83;;;15.40;99.90;;;;;;4921646;29;20446;-89
2022/05/01 12:34:52;;;;;;;6.47;3.22;;;15.40;99.90;;;;;;4924312;29;20786;-89
2022/05/01 12:37:45;;;;;;;7.45;3.40;;;15.30;99.90;;;;;;4927038;29;20028;-89
2022/05/01 12:40:12;;;;;;;6.88;3.25;;;15.50;99.90;;;;;;4921957;29;20088;-90
2022/05/01 12:45:41;;;;;;;6.72;3.20;;;15.20;99.90;;;;;;4953087;29;20189;-89
2022/05/01 12:48:08;;;;;;;6.65;3.03;;;15.60;99.90;;;;;;4930518;29;20031;-89
2022/05/01 12:50:38;;;;;;;5.90;3.05;;;15.80;99.90;;;;;;4923850;29;20192;-90
2022/05/01 12:53:30;;;;;;;6.85;3.45;;;15.80;99.90;;;;;;4938994;29;20096;-89
2022/05/01 12:55:58;;;;;;;6.50;3.28;;;16.20;99.90;;;;;;4933551;29;20064;-87
2022/05/01 12:58:32;;;;;;;6.40;3.40;;;16.30;99.90;;;;;;4959486;29;20028;-89
2022/05/01 13:00:59;;;;;;;7.68;3.45;;;16.90;99.90;;;;;;4943400;29;20099;-90
2022/05/01 13:03:40;;;;;;;6.78;3.08;;;17.50;99.20;;;;;;4937113;29;20046;-88
2022/05/01 13:06:17;;;;;;;7.78;3.67;;;18.20;98.90;;;;;;4944299;29;20043;-89
2022/05/01 13:08:58;;;;;;;5.85;2.72;;;18.90;96.90;;;;;;4929345;29;20028;-89
2022/05/01 13:11:30;;;;;;;8.43;3.80;;;19.40;97.00;;;;;;4941500;29;20051;-88
2022/05/01 13:14:08;;;;;;;5.47;2.80;;;19.70;94.90;;;;;;4929578;29;20155;-87
2022/05/01 13:16:34;;;;;;;5.82;2.80;;;19.80;94.60;;;;;;4947013;29;20039;-88
2022/05/01 13:19:08;;;;;;;6.65;3.17;;;19.60;94.90;;;;;;4950065;29;20024;-87
2022/05/01 13:21:40;;;;;;;6.03;2.83;;;19.50;94.30;;;;;;4945522;29;20035;-87
2022/05/01 13:24:19;;;;;;;5.03;2.70;;;19.30;94.60;;;;;;4948015;29;20038;-87
2022/05/01 13:26:48;;;;;;;5.28;2.63;;;19.70;93.80;;;;;;4944964;29;20043;-89
2022/05/01 13:29:14;;;;;;;5.20;2.38;;;20.50;93.10;;;;;;4927964;29;20028;-89